sensor_id;sensor_type;location;lat;lon;timestamp;temperature;humidity
13561;DHT22;6852;51.686;5.314;2023-06-22T00:01:20;21.90;99.90
13561;DHT22;6852;51.686;5.314;2023-06-22T00:03:49;21.90;99.90
13561;DHT22;6852;51.686;5.314;2023-06-22T00:06:16;21.90;99.90
13561;DHT22;6852;51.686;5.314;2023-06-22T00:08:43;21.90;99.90
13561;DHT22;6852;51.686;5.314;2023-06-22T00:11:11;21.80;99.90
13561;DHT22;6852;51.686;5.314;2023-06-22T00:13:38;21.60;99.90
13561;DHT22;6852;51.686;5.314;2023-06-22T00:16:05;21.50;99.90
13561;DHT22;6852;51.686;5.314;2023-06-22T00:18:32;21.60;99.90
13561;DHT22;6852;51.686;5.314;2023-06-22T00:20:59;21.50;99.90
13561;DHT22;6852;51.686;5.314;2023-06-22T00:23:26;21.40;99.90
13561;DHT22;6852;51.686;5.314;2023-06-22T00:25:54;21.30;99.90
13561;DHT22;6852;51.686;5.314;2023-06-22T00:28:20;21.30;99.90
13561;DHT22;6852;51.686;5.314;2023-06-22T00:30:49;21.50;99.90
13561;DHT22;6852;51.686;5.314;2023-06-22T00:33:16;21.50;99.90
13561;DHT22;6852;51.686;5.314;2023-06-22T00:35:43;21.30;99.90
13561;DHT22;6852;51.686;5.314;2023-06-22T00:38:11;21.30;99.90
13561;DHT22;6852;51.686;5.314;2023-06-22T00:40:38;21.30;99.90
13561;DHT22;6852;51.686;5.314;2023-06-22T00:43:06;21.40;99.90
13561;DHT22;6852;51.686;5.314;2023-06-22T00:45:33;21.50;99.90
13561;DHT22;6852;51.686;5.314;2023-06-22T00:48:00;21.50;99.90
13561;DHT22;6852;51.686;5.314;2023-06-22T00:50:29;21.30;99.90
13561;DHT22;6852;51.686;5.314;2023-06-22T00:53:04;21.20;99.90
13561;DHT22;6852;51.686;5.314;2023-06-22T00:55:43;21.10;99.90
13561;DHT22;6852;51.686;5.314;2023-06-22T00:58:11;21.20;99.90
13561;DHT22;6852;51.686;5.314;2023-06-22T01:00:41;21.30;99.90
13561;DHT22;6852;51.686;5.314;2023-06-22T01:03:08;21.30;99.90
13561;DHT22;6852;51.686;5.314;2023-06-22T01:05:38;21.20;99.90
13561;DHT22;6852;51.686;5.314;2023-06-22T01:16:31;21.10;99.90
13561;DHT22;6852;51.686;5.314;2023-06-22T01:19:27;21.10;99.90
13561;DHT22;6852;51.686;5.314;2023-06-22T01:21:56;21.00;99.90
13561;DHT22;6852;51.686;5.314;2023-06-22T01:24:32;20.90;99.90
13561;DHT22;6852;51.686;5.314;2023-06-22T01:29:59;21.00;99.90
13561;DHT22;6852;51.686;5.314;2023-06-22T01:32:33;20.90;99.90
13561;DHT22;6852;51.686;5.314;2023-06-22T01:35:03;20.90;99.90
13561;DHT22;6852;51.686;5.314;2023-06-22T01:37:30;20.90;99.90
13561;DHT22;6852;51.686;5.314;2023-06-22T01:39:59;20.90;99.90
13561;DHT22;6852;51.686;5.314;2023-06-22T01:42:26;20.80;99.90
13561;DHT22;6852;51.686;5.314;2023-06-22T01:44:54;20.90;99.90
13561;DHT22;6852;51.686;5.314;2023-06-22T01:47:22;20.70;99.90
13561;DHT22;6852;51.686;5.314;2023-06-22T01:49:50;20.70;99.90
13561;DHT22;6852;51.686;5.314;2023-06-22T01:52:20;20.70;99.90
13561;DHT22;6852;51.686;5.314;2023-06-22T01:54:48;20.60;99.90
13561;DHT22;6852;51.686;5.314;2023-06-22T01:57:15;20.70;99.90
13561;DHT22;6852;51.686;5.314;2023-06-22T01:59:58;20.60;99.90
13561;DHT22;6852;51.686;5.314;2023-06-22T02:02:42;20.70;99.90
13561;DHT22;6852;51.686;5.314;2023-06-22T02:05:12;20.60;99.90
13561;DHT22;6852;51.686;5.314;2023-06-22T02:07:47;20.60;99.90
13561;DHT22;6852;51.686;5.314;2023-06-22T02:10:17;20.50;99.90
13561;DHT22;6852;51.686;5.314;2023-06-22T02:12:46;20.50;99.90
13561;DHT22;6852;51.686;5.314;2023-06-22T02:15:13;20.50;99.90
13561;DHT22;6852;51.686;5.314;2023-06-22T02:17:40;20.50;99.90
13561;DHT22;6852;51.686;5.314;2023-06-22T02:20:13;20.40;99.90
13561;DHT22;6852;51.686;5.314;2023-06-22T02:22:40;20.40;99.90
13561;DHT22;6852;51.686;5.314;2023-06-22T02:25:07;20.20;99.90
13561;DHT22;6852;51.686;5.314;2023-06-22T02:27:34;20.10;99.90
13561;DHT22;6852;51.686;5.314;2023-06-22T02:30:01;20.20;99.90
13561;DHT22;6852;51.686;5.314;2023-06-22T02:32:28;20.20;99.90
13561;DHT22;6852;51.686;5.314;2023-06-22T02:34:55;20.30;99.90
13561;DHT22;6852;51.686;5.314;2023-06-22T02:37:22;20.30;99.90
13561;DHT22;6852;51.686;5.314;2023-06-22T02:39:52;20.20;99.90
13561;DHT22;6852;51.686;5.314;2023-06-22T02:42:19;20.20;99.90
13561;DHT22;6852;51.686;5.314;2023-06-22T02:44:48;20.30;99.90
13561;DHT22;6852;51.686;5.314;2023-06-22T02:47:15;20.30;99.90
13561;DHT22;6852;51.686;5.314;2023-06-22T02:49:43;20.30;99.90
13561;DHT22;6852;51.686;5.314;2023-06-22T02:52:11;20.20;99.90
13561;DHT22;6852;51.686;5.314;2023-06-22T02:54:38;20.20;99.90
13561;DHT22;6852;51.686;5.314;2023-06-22T02:57:05;20.20;99.90
13561;DHT22;6852;51.686;5.314;2023-06-22T02:59:32;20.20;99.90
13561;DHT22;6852;51.686;5.314;2023-06-22T03:02:00;20.20;99.90
13561;DHT22;6852;51.686;5.314;2023-06-22T03:04:27;20.10;99.90
13561;DHT22;6852;51.686;5.314;2023-06-22T03:06:54;20.20;99.90
13561;DHT22;6852;51.686;5.314;2023-06-22T03:09:21;20.20;99.90
13561;DHT22;6852;51.686;5.314;2023-06-22T03:11:48;20.10;99.90
13561;DHT22;6852;51.686;5.314;2023-06-22T03:14:15;20.00;99.90
13561;DHT22;6852;51.686;5.314;2023-06-22T03:16:42;20.10;99.90
13561;DHT22;6852;51.686;5.314;2023-06-22T03:19:09;20.20;99.90
13561;DHT22;6852;51.686;5.314;2023-06-22T03:21:38;20.10;99.90
13561;DHT22;6852;51.686;5.314;2023-06-22T03:24:06;20.00;99.90
13561;DHT22;6852;51.686;5.314;2023-06-22T03:26:33;20.00;99.90
13561;DHT22;6852;51.686;5.314;2023-06-22T03:29:01;20.00;99.90
13561;DHT22;6852;51.686;5.314;2023-06-22T03:31:28;20.10;99.90
13561;DHT22;6852;51.686;5.314;2023-06-22T03:33:55;20.10;99.90
13561;DHT22;6852;51.686;5.314;2023-06-22T03:36:22;20.10;99.90
13561;DHT22;6852;51.686;5.314;2023-06-22T03:38:50;20.00;99.90
13561;DHT22;6852;51.686;5.314;2023-06-22T03:41:17;20.00;99.90
13561;DHT22;6852;51.686;5.314;2023-06-22T03:43:44;20.00;99.90
13561;DHT22;6852;51.686;5.314;2023-06-22T03:46:11;20.00;99.90
13561;DHT22;6852;51.686;5.314;2023-06-22T03:48:38;20.00;99.90
13561;DHT22;6852;51.686;5.314;2023-06-22T03:51:05;19.90;99.90
13561;DHT22;6852;51.686;5.314;2023-06-22T03:53:32;19.90;99.90
13561;DHT22;6852;51.686;5.314;2023-06-22T03:55:59;19.90;99.90
13561;DHT22;6852;51.686;5.314;2023-06-22T03:58:26;19.80;99.90
13561;DHT22;6852;51.686;5.314;2023-06-22T04:00:53;19.80;99.90
13561;DHT22;6852;51.686;5.314;2023-06-22T04:03:20;19.80;99.90
13561;DHT22;6852;51.686;5.314;2023-06-22T04:05:48;19.60;99.90
13561;DHT22;6852;51.686;5.314;2023-06-22T04:08:15;19.70;99.90
13561;DHT22;6852;51.686;5.314;2023-06-22T04:10:42;19.70;99.90
13561;DHT22;6852;51.686;5.314;2023-06-22T04:13:09;19.50;99.90
13561;DHT22;6852;51.686;5.314;2023-06-22T04:15:36;19.50;99.90
13561;DHT22;6852;51.686;5.314;2023-06-22T04:18:03;19.50;99.90
13561;DHT22;6852;51.686;5.314;2023-06-22T04:20:31;19.40;99.90
13561;DHT22;6852;51.686;5.314;2023-06-22T04:22:59;19.40;99.90
13561;DHT22;6852;51.686;5.314;2023-06-22T04:25:26;19.40;99.90
13561;DHT22;6852;51.686;5.314;2023-06-22T04:27:53;19.50;99.90
13561;DHT22;6852;51.686;5.314;2023-06-22T04:30:19;19.60;99.90
13561;DHT22;6852;51.686;5.314;2023-06-22T04:32:46;19.70;99.90
13561;DHT22;6852;51.686;5.314;2023-06-22T04:35:24;19.70;99.90
13561;DHT22;6852;51.686;5.314;2023-06-22T04:37:52;19.80;99.90
13561;DHT22;6852;51.686;5.314;2023-06-22T04:40:22;19.80;99.90
13561;DHT22;6852;51.686;5.314;2023-06-22T04:42:49;19.90;99.90
13561;DHT22;6852;51.686;5.314;2023-06-22T04:45:20;19.70;99.90
13561;DHT22;6852;51.686;5.314;2023-06-22T04:47:48;19.70;99.90
13561;DHT22;6852;51.686;5.314;2023-06-22T04:50:15;19.90;99.90
13561;DHT22;6852;51.686;5.314;2023-06-22T04:52:42;19.90;99.90
13561;DHT22;6852;51.686;5.314;2023-06-22T04:55:09;20.00;99.90
13561;DHT22;6852;51.686;5.314;2023-06-22T04:57:36;20.00;99.90
13561;DHT22;6852;51.686;5.314;2023-06-22T05:00:06;20.00;99.90
13561;DHT22;6852;51.686;5.314;2023-06-22T05:02:52;20.00;99.90
13561;DHT22;6852;51.686;5.314;2023-06-22T05:05:29;20.10;99.90
13561;DHT22;6852;51.686;5.314;2023-06-22T05:07:57;20.10;99.90
13561;DHT22;6852;51.686;5.314;2023-06-22T05:10:26;20.20;99.90
13561;DHT22;6852;51.686;5.314;2023-06-22T05:12:54;20.30;99.90
13561;DHT22;6852;51.686;5.314;2023-06-22T05:15:21;20.10;99.90
13561;DHT22;6852;51.686;5.314;2023-06-22T05:17:53;20.20;99.90
13561;DHT22;6852;51.686;5.314;2023-06-22T05:20:20;20.20;99.90
13561;DHT22;6852;51.686;5.314;2023-06-22T05:22:48;20.30;99.90
13561;DHT22;6852;51.686;5.314;2023-06-22T05:25:15;20.30;99.90
13561;DHT22;6852;51.686;5.314;2023-06-22T05:27:42;20.30;99.90
13561;DHT22;6852;51.686;5.314;2023-06-22T05:30:10;20.30;99.90
13561;DHT22;6852;51.686;5.314;2023-06-22T05:32:38;20.30;99.90
13561;DHT22;6852;51.686;5.314;2023-06-22T05:35:05;20.50;99.90
13561;DHT22;6852;51.686;5.314;2023-06-22T05:37:33;20.60;99.90
13561;DHT22;6852;51.686;5.314;2023-06-22T05:40:00;20.60;99.90
13561;DHT22;6852;51.686;5.314;2023-06-22T05:42:27;20.70;99.90
13561;DHT22;6852;51.686;5.314;2023-06-22T05:44:54;20.90;99.90
13561;DHT22;6852;51.686;5.314;2023-06-22T05:47:21;20.80;99.90
13561;DHT22;6852;51.686;5.314;2023-06-22T05:49:49;21.00;99.90
13561;DHT22;6852;51.686;5.314;2023-06-22T05:52:16;20.90;99.90
13561;DHT22;6852;51.686;5.314;2023-06-22T05:54:44;20.90;99.90
13561;DHT22;6852;51.686;5.314;2023-06-22T05:57:11;21.10;99.90
13561;DHT22;6852;51.686;5.314;2023-06-22T05:59:38;21.10;99.90
13561;DHT22;6852;51.686;5.314;2023-06-22T06:02:05;21.20;99.90
13561;DHT22;6852;51.686;5.314;2023-06-22T06:04:32;21.30;99.90
13561;DHT22;6852;51.686;5.314;2023-06-22T06:06:59;21.30;99.90
13561;DHT22;6852;51.686;5.314;2023-06-22T06:09:26;21.20;99.90
13561;DHT22;6852;51.686;5.314;2023-06-22T06:11:53;21.30;99.90
13561;DHT22;6852;51.686;5.314;2023-06-22T06:14:19;21.40;99.90
13561;DHT22;6852;51.686;5.314;2023-06-22T06:16:48;21.60;99.90
13561;DHT22;6852;51.686;5.314;2023-06-22T06:19:15;21.90;99.90
13561;DHT22;6852;51.686;5.314;2023-06-22T06:21:42;21.90;99.90
13561;DHT22;6852;51.686;5.314;2023-06-22T06:24:09;21.90;99.90
13561;DHT22;6852;51.686;5.314;2023-06-22T06:26:35;21.70;99.90
13561;DHT22;6852;51.686;5.314;2023-06-22T06:29:02;21.80;99.90
13561;DHT22;6852;51.686;5.314;2023-06-22T06:31:30;22.00;99.90
13561;DHT22;6852;51.686;5.314;2023-06-22T06:33:57;22.00;99.90
13561;DHT22;6852;51.686;5.314;2023-06-22T06:36:24;22.00;99.90
13561;DHT22;6852;51.686;5.314;2023-06-22T06:38:51;22.00;99.90
13561;DHT22;6852;51.686;5.314;2023-06-22T06:41:18;22.10;99.90
13561;DHT22;6852;51.686;5.314;2023-06-22T06:43:45;22.00;99.90
13561;DHT22;6852;51.686;5.314;2023-06-22T06:46:12;21.80;99.90
13561;DHT22;6852;51.686;5.314;2023-06-22T06:48:39;22.00;99.90
13561;DHT22;6852;51.686;5.314;2023-06-22T06:51:06;22.00;99.90
13561;DHT22;6852;51.686;5.314;2023-06-22T06:53:37;22.10;99.90
13561;DHT22;6852;51.686;5.314;2023-06-22T06:56:04;22.10;99.90
13561;DHT22;6852;51.686;5.314;2023-06-22T06:58:32;22.10;99.90
13561;DHT22;6852;51.686;5.314;2023-06-22T07:00:59;22.00;99.90
13561;DHT22;6852;51.686;5.314;2023-06-22T07:03:26;22.10;99.90
13561;DHT22;6852;51.686;5.314;2023-06-22T07:05:53;22.30;99.90
13561;DHT22;6852;51.686;5.314;2023-06-22T07:08:20;22.30;99.90
13561;DHT22;6852;51.686;5.314;2023-06-22T07:10:46;22.50;99.90
13561;DHT22;6852;51.686;5.314;2023-06-22T07:13:13;22.40;99.90
13561;DHT22;6852;51.686;5.314;2023-06-22T07:15:40;22.40;99.90
13561;DHT22;6852;51.686;5.314;2023-06-22T07:18:07;22.30;99.90
13561;DHT22;6852;51.686;5.314;2023-06-22T07:20:34;22.30;99.90
13561;DHT22;6852;51.686;5.314;2023-06-22T07:23:01;22.30;99.90
13561;DHT22;6852;51.686;5.314;2023-06-22T07:25:28;22.50;99.90
13561;DHT22;6852;51.686;5.314;2023-06-22T07:28:00;22.60;99.90
13561;DHT22;6852;51.686;5.314;2023-06-22T07:30:29;22.80;99.90
13561;DHT22;6852;51.686;5.314;2023-06-22T07:32:57;22.70;99.90
13561;DHT22;6852;51.686;5.314;2023-06-22T07:35:25;22.60;99.90
13561;DHT22;6852;51.686;5.314;2023-06-22T07:37:52;22.70;99.90
13561;DHT22;6852;51.686;5.314;2023-06-22T07:40:18;22.80;99.90
13561;DHT22;6852;51.686;5.314;2023-06-22T07:42:45;22.70;99.90
13561;DHT22;6852;51.686;5.314;2023-06-22T07:45:14;22.90;99.90
13561;DHT22;6852;51.686;5.314;2023-06-22T07:47:41;22.80;99.90
13561;DHT22;6852;51.686;5.314;2023-06-22T07:50:09;22.80;99.90
13561;DHT22;6852;51.686;5.314;2023-06-22T07:52:36;22.80;99.90
13561;DHT22;6852;51.686;5.314;2023-06-22T07:55:03;22.90;99.90
13561;DHT22;6852;51.686;5.314;2023-06-22T07:57:30;22.80;99.90
13561;DHT22;6852;51.686;5.314;2023-06-22T08:00:03;22.90;99.90
13561;DHT22;6852;51.686;5.314;2023-06-22T08:02:34;23.00;99.90
13561;DHT22;6852;51.686;5.314;2023-06-22T08:05:01;22.90;99.90
13561;DHT22;6852;51.686;5.314;2023-06-22T08:07:41;23.00;99.90
13561;DHT22;6852;51.686;5.314;2023-06-22T08:10:14;22.70;99.90
13561;DHT22;6852;51.686;5.314;2023-06-22T08:12:41;22.70;99.90
13561;DHT22;6852;51.686;5.314;2023-06-22T08:15:08;22.80;99.90
13561;DHT22;6852;51.686;5.314;2023-06-22T08:17:39;22.80;99.90
13561;DHT22;6852;51.686;5.314;2023-06-22T08:20:07;22.90;99.90
13561;DHT22;6852;51.686;5.314;2023-06-22T08:22:42;23.00;99.90
13561;DHT22;6852;51.686;5.314;2023-06-22T08:25:10;23.10;99.90
13561;DHT22;6852;51.686;5.314;2023-06-22T08:27:37;22.90;99.90
13561;DHT22;6852;51.686;5.314;2023-06-22T08:30:04;22.90;99.90
13561;DHT22;6852;51.686;5.314;2023-06-22T08:32:31;23.20;99.90
13561;DHT22;6852;51.686;5.314;2023-06-22T08:35:01;23.00;99.90
13561;DHT22;6852;51.686;5.314;2023-06-22T08:37:28;23.10;99.90
13561;DHT22;6852;51.686;5.314;2023-06-22T08:40:06;23.00;99.90
13561;DHT22;6852;51.686;5.314;2023-06-22T08:42:39;23.00;99.90
13561;DHT22;6852;51.686;5.314;2023-06-22T08:45:07;23.20;99.90
13561;DHT22;6852;51.686;5.314;2023-06-22T08:47:34;23.30;99.90
13561;DHT22;6852;51.686;5.314;2023-06-22T08:50:01;23.30;99.90
13561;DHT22;6852;51.686;5.314;2023-06-22T08:52:30;23.30;99.90
13561;DHT22;6852;51.686;5.314;2023-06-22T08:54:57;23.40;99.90
13561;DHT22;6852;51.686;5.314;2023-06-22T08:57:25;23.30;99.90
13561;DHT22;6852;51.686;5.314;2023-06-22T08:59:52;23.20;99.90
13561;DHT22;6852;51.686;5.314;2023-06-22T09:02:19;23.00;99.90
13561;DHT22;6852;51.686;5.314;2023-06-22T09:04:46;23.00;99.90
13561;DHT22;6852;51.686;5.314;2023-06-22T09:07:14;23.00;99.90
13561;DHT22;6852;51.686;5.314;2023-06-22T09:09:40;22.90;99.90
13561;DHT22;6852;51.686;5.314;2023-06-22T09:12:08;23.00;99.90
13561;DHT22;6852;51.686;5.314;2023-06-22T09:14:35;23.10;99.90
13561;DHT22;6852;51.686;5.314;2023-06-22T09:17:02;23.20;99.90
13561;DHT22;6852;51.686;5.314;2023-06-22T09:19:29;23.20;99.90
13561;DHT22;6852;51.686;5.314;2023-06-22T09:21:56;23.20;99.90
13561;DHT22;6852;51.686;5.314;2023-06-22T09:24:23;23.20;99.90
13561;DHT22;6852;51.686;5.314;2023-06-22T09:26:50;23.10;99.90
13561;DHT22;6852;51.686;5.314;2023-06-22T09:29:17;23.00;99.90
13561;DHT22;6852;51.686;5.314;2023-06-22T09:31:44;23.00;99.90
13561;DHT22;6852;51.686;5.314;2023-06-22T09:34:11;23.00;99.90
13561;DHT22;6852;51.686;5.314;2023-06-22T09:36:38;23.10;99.90
13561;DHT22;6852;51.686;5.314;2023-06-22T09:39:06;23.10;99.90
13561;DHT22;6852;51.686;5.314;2023-06-22T09:41:33;23.20;99.90
13561;DHT22;6852;51.686;5.314;2023-06-22T09:44:00;23.20;99.90
13561;DHT22;6852;51.686;5.314;2023-06-22T09:46:27;23.20;99.90
13561;DHT22;6852;51.686;5.314;2023-06-22T09:48:54;23.20;99.90
13561;DHT22;6852;51.686;5.314;2023-06-22T09:51:22;23.30;99.90
13561;DHT22;6852;51.686;5.314;2023-06-22T09:53:51;23.20;99.90
13561;DHT22;6852;51.686;5.314;2023-06-22T09:56:17;23.20;99.90
13561;DHT22;6852;51.686;5.314;2023-06-22T09:58:45;23.30;99.90
13561;DHT22;6852;51.686;5.314;2023-06-22T10:01:13;23.30;99.90
13561;DHT22;6852;51.686;5.314;2023-06-22T10:03:43;23.30;99.90
13561;DHT22;6852;51.686;5.314;2023-06-22T10:06:10;23.30;99.90
13561;DHT22;6852;51.686;5.314;2023-06-22T10:08:37;23.30;99.90
13561;DHT22;6852;51.686;5.314;2023-06-22T10:11:04;23.40;99.90
13561;DHT22;6852;51.686;5.314;2023-06-22T10:13:32;23.30;99.90
13561;DHT22;6852;51.686;5.314;2023-06-22T10:15:59;23.40;99.90
13561;DHT22;6852;51.686;5.314;2023-06-22T10:18:26;23.30;99.90
13561;DHT22;6852;51.686;5.314;2023-06-22T10:20:53;23.40;99.90
13561;DHT22;6852;51.686;5.314;2023-06-22T10:23:20;23.50;99.90
13561;DHT22;6852;51.686;5.314;2023-06-22T10:25:47;23.40;99.90
13561;DHT22;6852;51.686;5.314;2023-06-22T10:28:14;23.30;99.90
13561;DHT22;6852;51.686;5.314;2023-06-22T10:30:41;23.30;99.90
13561;DHT22;6852;51.686;5.314;2023-06-22T10:33:09;23.40;99.90
13561;DHT22;6852;51.686;5.314;2023-06-22T10:35:36;23.40;99.90
13561;DHT22;6852;51.686;5.314;2023-06-22T10:38:06;23.30;99.90
13561;DHT22;6852;51.686;5.314;2023-06-22T10:40:34;23.30;99.90
13561;DHT22;6852;51.686;5.314;2023-06-22T10:43:01;23.30;99.90
13561;DHT22;6852;51.686;5.314;2023-06-22T10:45:28;23.30;99.90
13561;DHT22;6852;51.686;5.314;2023-06-22T10:47:56;23.40;99.90
13561;DHT22;6852;51.686;5.314;2023-06-22T10:50:23;23.30;99.90
13561;DHT22;6852;51.686;5.314;2023-06-22T10:52:51;23.40;99.90
13561;DHT22;6852;51.686;5.314;2023-06-22T10:55:18;23.40;99.90
13561;DHT22;6852;51.686;5.314;2023-06-22T10:57:45;23.40;99.90
13561;DHT22;6852;51.686;5.314;2023-06-22T11:00:14;23.40;99.90
13561;DHT22;6852;51.686;5.314;2023-06-22T11:02:43;23.40;99.90
13561;DHT22;6852;51.686;5.314;2023-06-22T11:05:10;23.50;99.90
13561;DHT22;6852;51.686;5.314;2023-06-22T11:07:41;23.50;99.90
13561;DHT22;6852;51.686;5.314;2023-06-22T11:10:10;23.40;99.90
13561;DHT22;6852;51.686;5.314;2023-06-22T11:12:37;23.50;99.90
13561;DHT22;6852;51.686;5.314;2023-06-22T11:15:04;23.50;99.90
13561;DHT22;6852;51.686;5.314;2023-06-22T11:17:31;23.60;99.90
13561;DHT22;6852;51.686;5.314;2023-06-22T11:19:58;23.50;99.90
13561;DHT22;6852;51.686;5.314;2023-06-22T11:22:27;23.60;99.90
13561;DHT22;6852;51.686;5.314;2023-06-22T11:24:54;23.70;99.90
13561;DHT22;6852;51.686;5.314;2023-06-22T11:27:21;23.60;99.90
13561;DHT22;6852;51.686;5.314;2023-06-22T11:29:48;23.60;99.90
13561;DHT22;6852;51.686;5.314;2023-06-22T11:32:15;23.20;99.90
13561;DHT22;6852;51.686;5.314;2023-06-22T11:34:42;23.20;99.90
13561;DHT22;6852;51.686;5.314;2023-06-22T11:37:08;22.90;99.90
13561;DHT22;6852;51.686;5.314;2023-06-22T11:39:35;23.00;99.90
13561;DHT22;6852;51.686;5.314;2023-06-22T11:42:13;22.90;99.90
13561;DHT22;6852;51.686;5.314;2023-06-22T11:44:40;22.70;99.90
13561;DHT22;6852;51.686;5.314;2023-06-22T11:47:07;22.80;99.90
13561;DHT22;6852;51.686;5.314;2023-06-22T11:49:34;22.70;99.90
13561;DHT22;6852;51.686;5.314;2023-06-22T11:52:00;22.50;99.90
13561;DHT22;6852;51.686;5.314;2023-06-22T11:54:27;22.40;99.90
13561;DHT22;6852;51.686;5.314;2023-06-22T11:56:54;22.30;99.90
13561;DHT22;6852;51.686;5.314;2023-06-22T11:59:21;22.20;99.90
13561;DHT22;6852;51.686;5.314;2023-06-22T12:01:49;22.20;99.90
13561;DHT22;6852;51.686;5.314;2023-06-22T12:04:18;22.30;99.90
13561;DHT22;6852;51.686;5.314;2023-06-22T12:06:44;22.40;99.90
13561;DHT22;6852;51.686;5.314;2023-06-22T12:09:12;22.30;99.90
13561;DHT22;6852;51.686;5.314;2023-06-22T12:11:40;22.30;99.90
13561;DHT22;6852;51.686;5.314;2023-06-22T12:14:07;22.20;99.90
13561;DHT22;6852;51.686;5.314;2023-06-22T12:16:34;22.20;99.90
13561;DHT22;6852;51.686;5.314;2023-06-22T12:19:01;22.10;99.90
13561;DHT22;6852;51.686;5.314;2023-06-22T12:21:28;22.00;99.90
13561;DHT22;6852;51.686;5.314;2023-06-22T12:23:55;21.80;99.90
13561;DHT22;6852;51.686;5.314;2023-06-22T12:26:22;21.80;99.90
13561;DHT22;6852;51.686;5.314;2023-06-22T12:28:50;21.80;99.90
13561;DHT22;6852;51.686;5.314;2023-06-22T12:31:17;21.80;99.90
13561;DHT22;6852;51.686;5.314;2023-06-22T12:33:44;21.70;99.90
13561;DHT22;6852;51.686;5.314;2023-06-22T12:36:11;21.60;99.90
13561;DHT22;6852;51.686;5.314;2023-06-22T12:38:38;21.40;99.90
13561;DHT22;6852;51.686;5.314;2023-06-22T12:41:05;21.30;99.90
13561;DHT22;6852;51.686;5.314;2023-06-22T12:43:33;21.20;99.90
13561;DHT22;6852;51.686;5.314;2023-06-22T12:46:00;21.20;99.90
13561;DHT22;6852;51.686;5.314;2023-06-22T12:48:28;21.20;99.90
13561;DHT22;6852;51.686;5.314;2023-06-22T12:50:55;21.10;99.90
13561;DHT22;6852;51.686;5.314;2023-06-22T12:53:22;21.10;99.90
13561;DHT22;6852;51.686;5.314;2023-06-22T12:55:50;20.90;99.90
13561;DHT22;6852;51.686;5.314;2023-06-22T12:58:18;21.00;99.90
13561;DHT22;6852;51.686;5.314;2023-06-22T13:00:44;21.00;99.90
13561;DHT22;6852;51.686;5.314;2023-06-22T13:03:11;20.90;99.90
13561;DHT22;6852;51.686;5.314;2023-06-22T13:05:39;20.30;99.90
13561;DHT22;6852;51.686;5.314;2023-06-22T13:08:05;20.30;99.90
13561;DHT22;6852;51.686;5.314;2023-06-22T13:10:32;20.40;99.90
13561;DHT22;6852;51.686;5.314;2023-06-22T13:13:00;20.40;99.90
13561;DHT22;6852;51.686;5.314;2023-06-22T13:15:29;20.50;99.90
13561;DHT22;6852;51.686;5.314;2023-06-22T13:17:57;20.50;99.90
13561;DHT22;6852;51.686;5.314;2023-06-22T13:20:24;20.20;99.90
13561;DHT22;6852;51.686;5.314;2023-06-22T13:22:51;20.30;99.90
13561;DHT22;6852;51.686;5.314;2023-06-22T13:25:18;20.40;99.90
13561;DHT22;6852;51.686;5.314;2023-06-22T13:27:47;20.40;99.90
13561;DHT22;6852;51.686;5.314;2023-06-22T13:30:14;20.20;99.90
13561;DHT22;6852;51.686;5.314;2023-06-22T13:32:41;20.20;99.90
13561;DHT22;6852;51.686;5.314;2023-06-22T13:35:10;20.30;99.90
13561;DHT22;6852;51.686;5.314;2023-06-22T13:37:38;20.10;99.90
13561;DHT22;6852;51.686;5.314;2023-06-22T13:40:08;20.20;99.90
13561;DHT22;6852;51.686;5.314;2023-06-22T13:42:35;20.00;99.90
13561;DHT22;6852;51.686;5.314;2023-06-22T13:45:03;20.10;99.90
13561;DHT22;6852;51.686;5.314;2023-06-22T13:47:30;20.30;99.90
13561;DHT22;6852;51.686;5.314;2023-06-22T13:49:58;20.20;99.90
13561;DHT22;6852;51.686;5.314;2023-06-22T13:52:25;20.20;99.90
13561;DHT22;6852;51.686;5.314;2023-06-22T13:54:53;20.00;99.90
13561;DHT22;6852;51.686;5.314;2023-06-22T13:57:20;20.10;99.90
13561;DHT22;6852;51.686;5.314;2023-06-22T13:59:47;19.80;99.90
13561;DHT22;6852;51.686;5.314;2023-06-22T14:02:13;20.00;99.90
13561;DHT22;6852;51.686;5.314;2023-06-22T14:04:40;19.90;99.90
13561;DHT22;6852;51.686;5.314;2023-06-22T14:07:08;20.00;99.90
13561;DHT22;6852;51.686;5.314;2023-06-22T14:09:35;19.90;99.90
13561;DHT22;6852;51.686;5.314;2023-06-22T14:12:05;19.60;99.90
13561;DHT22;6852;51.686;5.314;2023-06-22T14:14:33;19.50;99.90
13561;DHT22;6852;51.686;5.314;2023-06-22T14:17:00;19.40;99.90
13561;DHT22;6852;51.686;5.314;2023-06-22T14:19:27;19.50;99.90
13561;DHT22;6852;51.686;5.314;2023-06-22T14:21:54;19.40;99.90
13561;DHT22;6852;51.686;5.314;2023-06-22T14:24:21;19.40;99.90
13561;DHT22;6852;51.686;5.314;2023-06-22T14:26:51;19.40;99.90
13561;DHT22;6852;51.686;5.314;2023-06-22T14:29:18;19.40;99.90
13561;DHT22;6852;51.686;5.314;2023-06-22T14:31:46;19.40;99.90
13561;DHT22;6852;51.686;5.314;2023-06-22T14:34:14;19.30;99.90
13561;DHT22;6852;51.686;5.314;2023-06-22T14:36:42;19.30;99.90
13561;DHT22;6852;51.686;5.314;2023-06-22T14:39:09;19.30;99.90
13561;DHT22;6852;51.686;5.314;2023-06-22T14:41:36;19.40;99.90
13561;DHT22;6852;51.686;5.314;2023-06-22T14:44:03;19.50;99.90
13561;DHT22;6852;51.686;5.314;2023-06-22T14:46:30;19.50;99.90
13561;DHT22;6852;51.686;5.314;2023-06-22T14:48:57;19.60;99.90
13561;DHT22;6852;51.686;5.314;2023-06-22T14:51:24;19.40;99.90
13561;DHT22;6852;51.686;5.314;2023-06-22T14:53:51;19.20;99.90
13561;DHT22;6852;51.686;5.314;2023-06-22T14:56:17;19.20;99.90
13561;DHT22;6852;51.686;5.314;2023-06-22T14:58:45;19.20;99.90
13561;DHT22;6852;51.686;5.314;2023-06-22T15:01:13;19.10;99.90
13561;DHT22;6852;51.686;5.314;2023-06-22T15:03:40;19.30;99.90
13561;DHT22;6852;51.686;5.314;2023-06-22T15:06:08;19.20;99.90
13561;DHT22;6852;51.686;5.314;2023-06-22T15:08:39;19.20;99.90
13561;DHT22;6852;51.686;5.314;2023-06-22T15:11:07;19.20;99.90
13561;DHT22;6852;51.686;5.314;2023-06-22T15:13:35;19.20;99.90
13561;DHT22;6852;51.686;5.314;2023-06-22T15:16:05;19.20;99.90
13561;DHT22;6852;51.686;5.314;2023-06-22T15:18:32;19.30;99.90
13561;DHT22;6852;51.686;5.314;2023-06-22T15:21:03;19.20;99.90
13561;DHT22;6852;51.686;5.314;2023-06-22T15:23:31;19.40;99.90
13561;DHT22;6852;51.686;5.314;2023-06-22T15:25:59;19.60;99.90
13561;DHT22;6852;51.686;5.314;2023-06-22T15:28:27;19.50;99.90
13561;DHT22;6852;51.686;5.314;2023-06-22T15:30:54;19.50;99.90
13561;DHT22;6852;51.686;5.314;2023-06-22T15:33:22;19.60;99.90
13561;DHT22;6852;51.686;5.314;2023-06-22T15:35:50;19.60;99.90
13561;DHT22;6852;51.686;5.314;2023-06-22T15:38:19;19.70;99.90
13561;DHT22;6852;51.686;5.314;2023-06-22T15:40:46;19.70;99.90
13561;DHT22;6852;51.686;5.314;2023-06-22T15:43:13;19.70;99.90
13561;DHT22;6852;51.686;5.314;2023-06-22T15:45:40;19.80;99.90
13561;DHT22;6852;51.686;5.314;2023-06-22T15:48:07;19.70;99.90
13561;DHT22;6852;51.686;5.314;2023-06-22T15:50:34;19.80;99.90
13561;DHT22;6852;51.686;5.314;2023-06-22T15:53:01;19.70;99.90
13561;DHT22;6852;51.686;5.314;2023-06-22T15:55:28;19.80;99.90
13561;DHT22;6852;51.686;5.314;2023-06-22T15:57:58;19.90;99.90
13561;DHT22;6852;51.686;5.314;2023-06-22T16:00:26;19.90;99.90